Sunset Beach, California
Current Conditions -  °F | °C
As of 5:58 PM on Thursday 20 Nov 2014 (Local Time) from KSLI Reporting Station
Broken Clouds Broken Clouds  
Wind Chill: 63°   Ceiling: 4500
Heat Index: 63°   Visibility: 10mi
Dew Point: 56°   Wind: 2mph
Humidity: 79%   Direction: 270°W
Pressure: 30.01"   Gusts: NA
Location:  33.72°N, 118.07°W
Report Text: KSLI 210158Z 27002KT 10SM BKN045 BKN210 17/14 A3001 RMK AO2A SLP165 T01710135
Loading
Personal Weather Stations






























Interactive Weather Map New forecast layout! Learn more

10-Day Weather Forecast

Advertisements
Track Severe Weather on mobile